sensor_id;sensor_type;location;lat;lon;timestamp;temperature;humidity
55173;DHT22;41061;52.822;6.860;2022-07-06T00:01:06;13.30;99.90
55173;DHT22;41061;52.822;6.860;2022-07-06T00:03:32;13.40;99.90
55173;DHT22;41061;52.822;6.860;2022-07-06T00:05:58;13.40;99.90
55173;DHT22;41061;52.822;6.860;2022-07-06T00:08:24;13.40;99.90
55173;DHT22;41061;52.822;6.860;2022-07-06T00:10:49;13.50;99.90
55173;DHT22;41061;52.822;6.860;2022-07-06T00:13:15;13.40;99.90
55173;DHT22;41061;52.822;6.860;2022-07-06T00:15:41;13.40;99.90
55173;DHT22;41061;52.822;6.860;2022-07-06T00:18:07;13.50;99.90
55173;DHT22;41061;52.822;6.860;2022-07-06T00:20:32;13.50;99.90
55173;DHT22;41061;52.822;6.860;2022-07-06T00:22:58;13.50;99.90
55173;DHT22;41061;52.822;6.860;2022-07-06T00:25:24;13.60;99.90
55173;DHT22;41061;52.822;6.860;2022-07-06T00:27:49;13.60;99.90
55173;DHT22;41061;52.822;6.860;2022-07-06T00:30:15;13.60;99.90
55173;DHT22;41061;52.822;6.860;2022-07-06T00:32:40;13.60;99.90
55173;DHT22;41061;52.822;6.860;2022-07-06T00:35:06;13.70;99.90
55173;DHT22;41061;52.822;6.860;2022-07-06T00:37:32;13.60;99.90
55173;DHT22;41061;52.822;6.860;2022-07-06T00:39:58;13.70;99.90
55173;DHT22;41061;52.822;6.860;2022-07-06T00:42:23;13.80;99.90
55173;DHT22;41061;52.822;6.860;2022-07-06T00:44:50;13.80;99.90
55173;DHT22;41061;52.822;6.860;2022-07-06T00:47:15;13.80;99.90
55173;DHT22;41061;52.822;6.860;2022-07-06T00:49:41;13.80;99.90
55173;DHT22;41061;52.822;6.860;2022-07-06T00:52:25;13.90;99.90
55173;DHT22;41061;52.822;6.860;2022-07-06T00:54:51;13.90;99.90
55173;DHT22;41061;52.822;6.860;2022-07-06T00:57:18;13.90;99.90
55173;DHT22;41061;52.822;6.860;2022-07-06T00:59:44;13.90;99.90
55173;DHT22;41061;52.822;6.860;2022-07-06T01:02:09;13.90;99.90
55173;DHT22;41061;52.822;6.860;2022-07-06T01:04:35;13.90;99.90
55173;DHT22;41061;52.822;6.860;2022-07-06T01:07:01;14.00;99.90
55173;DHT22;41061;52.822;6.860;2022-07-06T01:09:27;14.00;99.90
55173;DHT22;41061;52.822;6.860;2022-07-06T01:11:53;14.00;99.90
55173;DHT22;41061;52.822;6.860;2022-07-06T01:14:20;14.00;99.90
55173;DHT22;41061;52.822;6.860;2022-07-06T01:16:45;14.00;99.90
55173;DHT22;41061;52.822;6.860;2022-07-06T01:19:11;14.00;99.90
55173;DHT22;41061;52.822;6.860;2022-07-06T01:21:40;14.10;99.90
55173;DHT22;41061;52.822;6.860;2022-07-06T01:24:06;14.10;99.90
55173;DHT22;41061;52.822;6.860;2022-07-06T01:26:32;14.10;99.90
55173;DHT22;41061;52.822;6.860;2022-07-06T01:28:58;14.10;99.90
55173;DHT22;41061;52.822;6.860;2022-07-06T01:31:25;14.10;99.90
55173;DHT22;41061;52.822;6.860;2022-07-06T01:33:53;14.10;99.90
55173;DHT22;41061;52.822;6.860;2022-07-06T01:36:19;14.10;99.90
55173;DHT22;41061;52.822;6.860;2022-07-06T01:38:53;14.10;99.90
55173;DHT22;41061;52.822;6.860;2022-07-06T01:41:19;14.10;99.90
55173;DHT22;41061;52.822;6.860;2022-07-06T01:43:46;14.10;99.90
55173;DHT22;41061;52.822;6.860;2022-07-06T01:46:12;14.10;99.90
55173;DHT22;41061;52.822;6.860;2022-07-06T01:48:38;14.10;99.90
55173;DHT22;41061;52.822;6.860;2022-07-06T01:51:04;14.10;99.90
55173;DHT22;41061;52.822;6.860;2022-07-06T01:53:30;14.10;99.90
55173;DHT22;41061;52.822;6.860;2022-07-06T01:55:56;14.10;99.90
55173;DHT22;41061;52.822;6.860;2022-07-06T01:58:22;14.10;99.90
55173;DHT22;41061;52.822;6.860;2022-07-06T02:00:48;14.10;99.90
55173;DHT22;41061;52.822;6.860;2022-07-06T02:03:14;14.00;99.90
55173;DHT22;41061;52.822;6.860;2022-07-06T02:05:39;14.00;99.90
55173;DHT22;41061;52.822;6.860;2022-07-06T02:08:05;14.00;99.90
55173;DHT22;41061;52.822;6.860;2022-07-06T02:10:30;14.00;99.90
55173;DHT22;41061;52.822;6.860;2022-07-06T02:12:56;14.10;99.90
55173;DHT22;41061;52.822;6.860;2022-07-06T02:15:22;14.00;99.90
55173;DHT22;41061;52.822;6.860;2022-07-06T02:17:47;14.00;99.90
55173;DHT22;41061;52.822;6.860;2022-07-06T02:20:13;14.00;99.90
55173;DHT22;41061;52.822;6.860;2022-07-06T02:22:39;14.00;99.90
55173;DHT22;41061;52.822;6.860;2022-07-06T02:25:05;14.00;99.90
55173;DHT22;41061;52.822;6.860;2022-07-06T02:27:30;14.00;99.90
55173;DHT22;41061;52.822;6.860;2022-07-06T02:29:56;14.00;99.90
55173;DHT22;41061;52.822;6.860;2022-07-06T02:32:22;14.00;99.90
55173;DHT22;41061;52.822;6.860;2022-07-06T02:34:48;14.00;99.90
55173;DHT22;41061;52.822;6.860;2022-07-06T02:37:13;14.00;99.90
55173;DHT22;41061;52.822;6.860;2022-07-06T02:39:40;14.00;99.90
55173;DHT22;41061;52.822;6.860;2022-07-06T02:42:06;14.00;99.90
55173;DHT22;41061;52.822;6.860;2022-07-06T02:44:32;14.00;99.90
55173;DHT22;41061;52.822;6.860;2022-07-06T02:46:57;14.00;99.90
55173;DHT22;41061;52.822;6.860;2022-07-06T02:49:23;14.00;99.90
55173;DHT22;41061;52.822;6.860;2022-07-06T02:51:48;13.90;99.90
55173;DHT22;41061;52.822;6.860;2022-07-06T02:54:14;14.00;99.90
55173;DHT22;41061;52.822;6.860;2022-07-06T02:56:39;13.90;99.90
55173;DHT22;41061;52.822;6.860;2022-07-06T02:59:06;14.00;99.90
55173;DHT22;41061;52.822;6.860;2022-07-06T03:01:32;14.00;99.90
55173;DHT22;41061;52.822;6.860;2022-07-06T03:03:57;13.90;99.90
55173;DHT22;41061;52.822;6.860;2022-07-06T03:06:23;13.90;99.90
55173;DHT22;41061;52.822;6.860;2022-07-06T03:08:49;13.90;99.90
55173;DHT22;41061;52.822;6.860;2022-07-06T03:11:14;13.90;99.90
55173;DHT22;41061;52.822;6.860;2022-07-06T03:13:40;13.90;99.90
55173;DHT22;41061;52.822;6.860;2022-07-06T03:16:06;13.90;99.90
55173;DHT22;41061;52.822;6.860;2022-07-06T03:18:31;14.00;99.90
55173;DHT22;41061;52.822;6.860;2022-07-06T03:20:57;14.00;99.90
55173;DHT22;41061;52.822;6.860;2022-07-06T03:23:23;14.00;99.90
55173;DHT22;41061;52.822;6.860;2022-07-06T03:25:48;14.00;99.90
55173;DHT22;41061;52.822;6.860;2022-07-06T03:28:14;14.00;99.90
55173;DHT22;41061;52.822;6.860;2022-07-06T03:30:39;14.00;99.90
55173;DHT22;41061;52.822;6.860;2022-07-06T03:33:06;14.00;99.90
55173;DHT22;41061;52.822;6.860;2022-07-06T03:35:32;14.00;99.90
55173;DHT22;41061;52.822;6.860;2022-07-06T03:37:57;14.00;99.90
55173;DHT22;41061;52.822;6.860;2022-07-06T03:40:23;14.10;99.90
55173;DHT22;41061;52.822;6.860;2022-07-06T03:42:49;14.00;99.90
55173;DHT22;41061;52.822;6.860;2022-07-06T03:45:14;14.10;99.90
55173;DHT22;41061;52.822;6.860;2022-07-06T03:47:43;14.10;99.90
55173;DHT22;41061;52.822;6.860;2022-07-06T03:50:09;14.10;99.90
55173;DHT22;41061;52.822;6.860;2022-07-06T03:52:35;14.10;99.90
55173;DHT22;41061;52.822;6.860;2022-07-06T03:55:08;14.00;99.90
55173;DHT22;41061;52.822;6.860;2022-07-06T03:57:35;14.10;99.90
55173;DHT22;41061;52.822;6.860;2022-07-06T04:00:01;14.10;99.90
55173;DHT22;41061;52.822;6.860;2022-07-06T04:02:27;14.10;99.90
55173;DHT22;41061;52.822;6.860;2022-07-06T04:04:53;14.20;99.90
55173;DHT22;41061;52.822;6.860;2022-07-06T04:07:18;14.20;99.90
55173;DHT22;41061;52.822;6.860;2022-07-06T04:09:44;14.20;99.90
55173;DHT22;41061;52.822;6.860;2022-07-06T04:12:09;14.20;99.90
55173;DHT22;41061;52.822;6.860;2022-07-06T04:14:35;14.20;99.90
55173;DHT22;41061;52.822;6.860;2022-07-06T04:17:01;14.30;99.90
55173;DHT22;41061;52.822;6.860;2022-07-06T04:19:49;14.30;99.90
55173;DHT22;41061;52.822;6.860;2022-07-06T04:22:15;14.40;99.90
55173;DHT22;41061;52.822;6.860;2022-07-06T04:24:41;14.30;99.90
55173;DHT22;41061;52.822;6.860;2022-07-06T04:27:07;14.40;99.90
55173;DHT22;41061;52.822;6.860;2022-07-06T04:29:32;14.50;99.90
55173;DHT22;41061;52.822;6.860;2022-07-06T04:32:01;14.60;99.90
55173;DHT22;41061;52.822;6.860;2022-07-06T04:34:26;14.60;99.90
55173;DHT22;41061;52.822;6.860;2022-07-06T04:36:52;14.70;99.90
55173;DHT22;41061;52.822;6.860;2022-07-06T04:39:18;14.70;99.90
55173;DHT22;41061;52.822;6.860;2022-07-06T04:41:43;14.70;99.90
55173;DHT22;41061;52.822;6.860;2022-07-06T04:44:09;14.80;99.90
55173;DHT22;41061;52.822;6.860;2022-07-06T04:46:35;14.90;99.90
55173;DHT22;41061;52.822;6.860;2022-07-06T04:49:00;14.90;99.90
55173;DHT22;41061;52.822;6.860;2022-07-06T04:51:26;15.00;99.90
55173;DHT22;41061;52.822;6.860;2022-07-06T04:53:51;15.00;99.90
55173;DHT22;41061;52.822;6.860;2022-07-06T04:56:17;15.20;99.90
55173;DHT22;41061;52.822;6.860;2022-07-06T04:58:43;15.20;99.90
55173;DHT22;41061;52.822;6.860;2022-07-06T05:01:09;15.40;99.90
55173;DHT22;41061;52.822;6.860;2022-07-06T05:03:34;15.40;99.90
55173;DHT22;41061;52.822;6.860;2022-07-06T05:06:06;15.50;99.90
55173;DHT22;41061;52.822;6.860;2022-07-06T05:08:33;15.60;99.90
55173;DHT22;41061;52.822;6.860;2022-07-06T05:11:01;15.70;99.90
55173;DHT22;41061;52.822;6.860;2022-07-06T05:13:26;15.70;99.90
55173;DHT22;41061;52.822;6.860;2022-07-06T05:15:52;15.80;99.90
55173;DHT22;41061;52.822;6.860;2022-07-06T05:18:18;15.90;99.90
55173;DHT22;41061;52.822;6.860;2022-07-06T05:20:43;15.90;99.90
55173;DHT22;41061;52.822;6.860;2022-07-06T05:23:09;16.00;99.90
55173;DHT22;41061;52.822;6.860;2022-07-06T05:25:35;16.10;99.90
55173;DHT22;41061;52.822;6.860;2022-07-06T05:28:02;16.10;99.90
55173;DHT22;41061;52.822;6.860;2022-07-06T05:30:28;16.10;99.90
55173;DHT22;41061;52.822;6.860;2022-07-06T05:32:54;16.20;99.90
55173;DHT22;41061;52.822;6.860;2022-07-06T05:35:20;16.20;99.90
55173;DHT22;41061;52.822;6.860;2022-07-06T05:37:45;16.20;99.90
55173;DHT22;41061;52.822;6.860;2022-07-06T05:40:11;16.20;99.90
55173;DHT22;41061;52.822;6.860;2022-07-06T05:42:37;16.30;99.90
55173;DHT22;41061;52.822;6.860;2022-07-06T05:45:02;16.30;99.90
55173;DHT22;41061;52.822;6.860;2022-07-06T05:47:29;16.30;99.90
55173;DHT22;41061;52.822;6.860;2022-07-06T05:50:14;16.20;99.90
55173;DHT22;41061;52.822;6.860;2022-07-06T05:52:44;16.10;99.90
55173;DHT22;41061;52.822;6.860;2022-07-06T05:55:11;16.00;99.90
55173;DHT22;41061;52.822;6.860;2022-07-06T05:57:38;16.00;99.90
55173;DHT22;41061;52.822;6.860;2022-07-06T06:00:06;16.00;99.90
55173;DHT22;41061;52.822;6.860;2022-07-06T06:02:40;16.00;99.90
55173;DHT22;41061;52.822;6.860;2022-07-06T06:05:07;16.10;99.90
55173;DHT22;41061;52.822;6.860;2022-07-06T06:07:38;16.10;99.90
55173;DHT22;41061;52.822;6.860;2022-07-06T06:10:11;16.10;99.90
55173;DHT22;41061;52.822;6.860;2022-07-06T06:12:38;16.20;99.90
55173;DHT22;41061;52.822;6.860;2022-07-06T06:15:05;16.20;99.90
55173;DHT22;41061;52.822;6.860;2022-07-06T06:17:32;16.20;99.90
55173;DHT22;41061;52.822;6.860;2022-07-06T06:19:58;16.20;99.90
55173;DHT22;41061;52.822;6.860;2022-07-06T06:22:24;16.30;99.90
55173;DHT22;41061;52.822;6.860;2022-07-06T06:24:50;16.30;99.90
55173;DHT22;41061;52.822;6.860;2022-07-06T06:27:17;16.30;99.90
55173;DHT22;41061;52.822;6.860;2022-07-06T06:29:43;16.50;99.90
55173;DHT22;41061;52.822;6.860;2022-07-06T06:32:11;16.40;99.90
55173;DHT22;41061;52.822;6.860;2022-07-06T06:34:37;16.40;99.90
55173;DHT22;41061;52.822;6.860;2022-07-06T06:37:03;16.40;99.90
55173;DHT22;41061;52.822;6.860;2022-07-06T06:39:29;16.50;99.90
55173;DHT22;41061;52.822;6.860;2022-07-06T06:41:57;16.50;99.90
55173;DHT22;41061;52.822;6.860;2022-07-06T06:44:23;16.40;99.90
55173;DHT22;41061;52.822;6.860;2022-07-06T06:46:52;16.40;99.90
55173;DHT22;41061;52.822;6.860;2022-07-06T06:49:18;16.40;99.90
55173;DHT22;41061;52.822;6.860;2022-07-06T06:51:44;16.40;99.90
55173;DHT22;41061;52.822;6.860;2022-07-06T06:54:10;16.50;99.90
55173;DHT22;41061;52.822;6.860;2022-07-06T06:56:36;16.40;99.90
55173;DHT22;41061;52.822;6.860;2022-07-06T06:59:02;16.40;99.90
55173;DHT22;41061;52.822;6.860;2022-07-06T07:01:28;16.40;99.90
55173;DHT22;41061;52.822;6.860;2022-07-06T07:03:55;16.30;99.90
55173;DHT22;41061;52.822;6.860;2022-07-06T07:06:21;16.40;99.90
55173;DHT22;41061;52.822;6.860;2022-07-06T07:08:47;16.40;99.90
55173;DHT22;41061;52.822;6.860;2022-07-06T07:11:13;16.40;99.90
55173;DHT22;41061;52.822;6.860;2022-07-06T07:13:38;16.50;99.90
55173;DHT22;41061;52.822;6.860;2022-07-06T07:16:04;16.60;99.90
55173;DHT22;41061;52.822;6.860;2022-07-06T07:18:30;16.70;99.90
55173;DHT22;41061;52.822;6.860;2022-07-06T07:20:57;16.70;99.90
55173;DHT22;41061;52.822;6.860;2022-07-06T07:23:23;16.80;99.90
55173;DHT22;41061;52.822;6.860;2022-07-06T07:25:49;16.90;99.90
55173;DHT22;41061;52.822;6.860;2022-07-06T07:28:14;17.00;99.90
55173;DHT22;41061;52.822;6.860;2022-07-06T07:30:40;17.10;99.90
55173;DHT22;41061;52.822;6.860;2022-07-06T07:33:06;17.20;99.90
55173;DHT22;41061;52.822;6.860;2022-07-06T07:35:32;17.30;99.90
55173;DHT22;41061;52.822;6.860;2022-07-06T07:37:58;17.30;99.90
55173;DHT22;41061;52.822;6.860;2022-07-06T07:40:23;17.50;99.90
55173;DHT22;41061;52.822;6.860;2022-07-06T07:42:49;17.60;99.90
55173;DHT22;41061;52.822;6.860;2022-07-06T07:45:15;17.60;99.90
55173;DHT22;41061;52.822;6.860;2022-07-06T07:47:41;17.60;99.90
55173;DHT22;41061;52.822;6.860;2022-07-06T07:50:07;17.60;99.90
55173;DHT22;41061;52.822;6.860;2022-07-06T07:52:32;17.50;99.90
55173;DHT22;41061;52.822;6.860;2022-07-06T07:54:58;17.60;99.90
55173;DHT22;41061;52.822;6.860;2022-07-06T07:57:24;17.50;99.90
55173;DHT22;41061;52.822;6.860;2022-07-06T07:59:49;17.50;99.90
55173;DHT22;41061;52.822;6.860;2022-07-06T08:02:15;17.60;99.90
55173;DHT22;41061;52.822;6.860;2022-07-06T08:04:41;17.70;99.90
55173;DHT22;41061;52.822;6.860;2022-07-06T08:07:06;17.70;99.90
55173;DHT22;41061;52.822;6.860;2022-07-06T08:09:33;17.70;99.90
55173;DHT22;41061;52.822;6.860;2022-07-06T08:11:59;17.70;99.90
55173;DHT22;41061;52.822;6.860;2022-07-06T08:14:25;17.90;99.90
55173;DHT22;41061;52.822;6.860;2022-07-06T08:16:51;18.00;99.90
55173;DHT22;41061;52.822;6.860;2022-07-06T08:19:16;18.20;99.90
55173;DHT22;41061;52.822;6.860;2022-07-06T08:21:42;18.40;99.90
55173;DHT22;41061;52.822;6.860;2022-07-06T08:24:08;18.40;99.90
55173;DHT22;41061;52.822;6.860;2022-07-06T08:26:34;18.50;99.90
55173;DHT22;41061;52.822;6.860;2022-07-06T08:29:00;18.60;99.90
55173;DHT22;41061;52.822;6.860;2022-07-06T08:31:26;18.70;99.90
55173;DHT22;41061;52.822;6.860;2022-07-06T08:33:55;18.80;99.90
55173;DHT22;41061;52.822;6.860;2022-07-06T08:36:21;18.70;99.90
55173;DHT22;41061;52.822;6.860;2022-07-06T08:38:48;18.70;99.90
55173;DHT22;41061;52.822;6.860;2022-07-06T08:41:15;18.60;99.90
55173;DHT22;41061;52.822;6.860;2022-07-06T08:43:41;18.60;99.90
55173;DHT22;41061;52.822;6.860;2022-07-06T08:46:08;18.50;99.90
55173;DHT22;41061;52.822;6.860;2022-07-06T08:48:38;18.60;99.90
55173;DHT22;41061;52.822;6.860;2022-07-06T08:51:06;18.60;99.90
55173;DHT22;41061;52.822;6.860;2022-07-06T08:53:33;18.60;99.90
55173;DHT22;41061;52.822;6.860;2022-07-06T08:56:00;18.60;99.90
55173;DHT22;41061;52.822;6.860;2022-07-06T08:58:27;18.40;99.90
55173;DHT22;41061;52.822;6.860;2022-07-06T09:00:56;18.30;99.90
55173;DHT22;41061;52.822;6.860;2022-07-06T09:03:23;18.30;99.90
55173;DHT22;41061;52.822;6.860;2022-07-06T09:05:50;18.20;99.90
55173;DHT22;41061;52.822;6.860;2022-07-06T09:08:18;18.10;99.90
55173;DHT22;41061;52.822;6.860;2022-07-06T09:10:43;18.10;99.90
55173;DHT22;41061;52.822;6.860;2022-07-06T09:13:09;18.10;99.90
55173;DHT22;41061;52.822;6.860;2022-07-06T09:15:36;18.10;99.90
55173;DHT22;41061;52.822;6.860;2022-07-06T09:18:05;18.20;99.90
55173;DHT22;41061;52.822;6.860;2022-07-06T09:20:31;18.40;99.90
55173;DHT22;41061;52.822;6.860;2022-07-06T09:22:58;18.80;99.90
55173;DHT22;41061;52.822;6.860;2022-07-06T09:25:26;19.00;99.90
55173;DHT22;41061;52.822;6.860;2022-07-06T09:27:52;19.30;99.90
55173;DHT22;41061;52.822;6.860;2022-07-06T09:30:22;19.50;99.90
55173;DHT22;41061;52.822;6.860;2022-07-06T09:32:49;19.60;99.90
55173;DHT22;41061;52.822;6.860;2022-07-06T09:35:31;19.50;99.90
55173;DHT22;41061;52.822;6.860;2022-07-06T09:38:10;19.40;99.90
55173;DHT22;41061;52.822;6.860;2022-07-06T09:40:39;19.50;99.90
55173;DHT22;41061;52.822;6.860;2022-07-06T09:43:15;19.90;99.90
55173;DHT22;41061;52.822;6.860;2022-07-06T09:45:47;20.10;99.90
55173;DHT22;41061;52.822;6.860;2022-07-06T09:48:15;20.30;99.90
55173;DHT22;41061;52.822;6.860;2022-07-06T09:50:46;20.40;99.90
55173;DHT22;41061;52.822;6.860;2022-07-06T09:53:13;20.50;99.90
55173;DHT22;41061;52.822;6.860;2022-07-06T09:55:44;20.30;99.90
55173;DHT22;41061;52.822;6.860;2022-07-06T09:58:10;20.40;99.90
55173;DHT22;41061;52.822;6.860;2022-07-06T10:00:36;20.60;99.90
55173;DHT22;41061;52.822;6.860;2022-07-06T10:03:02;21.00;99.90
55173;DHT22;41061;52.822;6.860;2022-07-06T10:05:28;21.20;99.90
55173;DHT22;41061;52.822;6.860;2022-07-06T10:07:59;21.20;99.90
55173;DHT22;41061;52.822;6.860;2022-07-06T10:10:29;21.30;99.90
55173;DHT22;41061;52.822;6.860;2022-07-06T10:12:56;21.30;99.90
55173;DHT22;41061;52.822;6.860;2022-07-06T10:15:27;21.10;99.90
55173;DHT22;41061;52.822;6.860;2022-07-06T10:17:54;21.20;99.90
55173;DHT22;41061;52.822;6.860;2022-07-06T10:20:20;21.40;99.90
55173;DHT22;41061;52.822;6.860;2022-07-06T10:22:50;21.40;99.90
55173;DHT22;41061;52.822;6.860;2022-07-06T10:25:17;21.40;99.90
55173;DHT22;41061;52.822;6.860;2022-07-06T10:27:45;21.40;99.90
55173;DHT22;41061;52.822;6.860;2022-07-06T10:30:11;21.40;99.90
55173;DHT22;41061;52.822;6.860;2022-07-06T10:32:39;21.20;99.90
55173;DHT22;41061;52.822;6.860;2022-07-06T10:35:06;21.10;99.90
55173;DHT22;41061;52.822;6.860;2022-07-06T10:37:32;21.40;99.90
55173;DHT22;41061;52.822;6.860;2022-07-06T10:39:59;21.50;99.90
55173;DHT22;41061;52.822;6.860;2022-07-06T10:42:47;21.70;99.90
55173;DHT22;41061;52.822;6.860;2022-07-06T10:45:49;21.70;99.90
55173;DHT22;41061;52.822;6.860;2022-07-06T10:53:13;22.10;99.90
55173;DHT22;41061;52.822;6.860;2022-07-06T10:55:40;22.20;98.30
55173;DHT22;41061;52.822;6.860;2022-07-06T10:58:08;22.10;99.90
55173;DHT22;41061;52.822;6.860;2022-07-06T11:00:53;22.20;99.90
55173;DHT22;41061;52.822;6.860;2022-07-06T11:03:39;22.40;99.90
55173;DHT22;41061;52.822;6.860;2022-07-06T11:08:58;22.50;99.90
55173;DHT22;41061;52.822;6.860;2022-07-06T11:16:33;21.90;99.90
55173;DHT22;41061;52.822;6.860;2022-07-06T11:19:08;22.00;99.90
55173;DHT22;41061;52.822;6.860;2022-07-06T11:21:52;22.10;99.90
55173;DHT22;41061;52.822;6.860;2022-07-06T11:24:29;22.20;99.90
55173;DHT22;41061;52.822;6.860;2022-07-06T11:26:56;22.30;99.90
55173;DHT22;41061;52.822;6.860;2022-07-06T11:29:23;22.30;99.90
55173;DHT22;41061;52.822;6.860;2022-07-06T11:32:00;22.50;99.90
55173;DHT22;41061;52.822;6.860;2022-07-06T11:34:34;22.60;99.90
55173;DHT22;41061;52.822;6.860;2022-07-06T11:37:07;22.80;99.90
55173;DHT22;41061;52.822;6.860;2022-07-06T11:39:36;23.10;99.70
55173;DHT22;41061;52.822;6.860;2022-07-06T11:42:03;23.30;99.90
55173;DHT22;41061;52.822;6.860;2022-07-06T11:44:33;23.50;99.80
55173;DHT22;41061;52.822;6.860;2022-07-06T11:46:59;23.60;99.60
55173;DHT22;41061;52.822;6.860;2022-07-06T11:49:30;24.00;99.30
55173;DHT22;41061;52.822;6.860;2022-07-06T11:51:56;24.10;96.10
55173;DHT22;41061;52.822;6.860;2022-07-06T11:54:23;24.00;95.10
55173;DHT22;41061;52.822;6.860;2022-07-06T11:56:59;23.90;96.00
55173;DHT22;41061;52.822;6.860;2022-07-06T11:59:28;23.70;96.60
55173;DHT22;41061;52.822;6.860;2022-07-06T12:02:04;23.70;97.60
55173;DHT22;41061;52.822;6.860;2022-07-06T12:04:32;23.60;96.50
55173;DHT22;41061;52.822;6.860;2022-07-06T12:07:01;23.30;94.00
55173;DHT22;41061;52.822;6.860;2022-07-06T12:09:30;23.00;95.70
55173;DHT22;41061;52.822;6.860;2022-07-06T12:11:56;22.90;96.90
55173;DHT22;41061;52.822;6.860;2022-07-06T12:14:22;22.90;98.30
55173;DHT22;41061;52.822;6.860;2022-07-06T12:16:50;22.60;99.60
55173;DHT22;41061;52.822;6.860;2022-07-06T12:19:16;22.50;99.90
55173;DHT22;41061;52.822;6.860;2022-07-06T12:24:09;22.40;99.90
55173;DHT22;41061;52.822;6.860;2022-07-06T12:26:41;22.40;99.90
55173;DHT22;41061;52.822;6.860;2022-07-06T12:29:11;22.40;99.90
55173;DHT22;41061;52.822;6.860;2022-07-06T12:31:54;22.70;99.90
55173;DHT22;41061;52.822;6.860;2022-07-06T12:34:25;23.00;99.90
55173;DHT22;41061;52.822;6.860;2022-07-06T12:36:58;23.00;99.90
55173;DHT22;41061;52.822;6.860;2022-07-06T12:39:28;23.00;99.60
55173;DHT22;41061;52.822;6.860;2022-07-06T12:41:56;23.00;99.90
55173;DHT22;41061;52.822;6.860;2022-07-06T12:44:25;23.20;99.30
55173;DHT22;41061;52.822;6.860;2022-07-06T12:47:07;23.50;99.90
55173;DHT22;41061;52.822;6.860;2022-07-06T12:49:38;23.80;99.30
55173;DHT22;41061;52.822;6.860;2022-07-06T12:52:11;24.00;99.20
55173;DHT22;41061;52.822;6.860;2022-07-06T12:54:42;24.20;97.70
55173;DHT22;41061;52.822;6.860;2022-07-06T12:57:41;24.00;96.60
55173;DHT22;41061;52.822;6.860;2022-07-06T13:00:07;23.70;96.60
55173;DHT22;41061;52.822;6.860;2022-07-06T13:02:36;23.40;97.80
55173;DHT22;41061;52.822;6.860;2022-07-06T13:05:11;23.30;98.50
55173;DHT22;41061;52.822;6.860;2022-07-06T13:07:38;23.20;98.90
55173;DHT22;41061;52.822;6.860;2022-07-06T13:10:06;23.00;98.00
55173;DHT22;41061;52.822;6.860;2022-07-06T13:12:32;22.60;98.70
55173;DHT22;41061;52.822;6.860;2022-07-06T13:14:58;22.50;99.90
55173;DHT22;41061;52.822;6.860;2022-07-06T13:17:24;22.50;99.90
55173;DHT22;41061;52.822;6.860;2022-07-06T13:19:49;22.30;99.50
55173;DHT22;41061;52.822;6.860;2022-07-06T13:22:15;22.30;99.90
55173;DHT22;41061;52.822;6.860;2022-07-06T13:24:41;22.50;99.90
55173;DHT22;41061;52.822;6.860;2022-07-06T13:27:07;22.70;99.90
55173;DHT22;41061;52.822;6.860;2022-07-06T13:29:33;22.70;99.90
55173;DHT22;41061;52.822;6.860;2022-07-06T13:31:59;22.60;99.90
55173;DHT22;41061;52.822;6.860;2022-07-06T13:34:25;22.50;99.90
55173;DHT22;41061;52.822;6.860;2022-07-06T13:36:51;22.20;99.30
55173;DHT22;41061;52.822;6.860;2022-07-06T13:39:18;21.80;99.90
55173;DHT22;41061;52.822;6.860;2022-07-06T13:41:44;21.80;99.90
55173;DHT22;41061;52.822;6.860;2022-07-06T13:44:10;22.00;99.90
55173;DHT22;41061;52.822;6.860;2022-07-06T13:46:38;22.10;99.90
55173;DHT22;41061;52.822;6.860;2022-07-06T13:49:04;22.10;99.90
55173;DHT22;41061;52.822;6.860;2022-07-06T13:51:30;22.00;99.90
55173;DHT22;41061;52.822;6.860;2022-07-06T13:54:01;22.00;99.90
55173;DHT22;41061;52.822;6.860;2022-07-06T13:56:27;22.10;99.50
55173;DHT22;41061;52.822;6.860;2022-07-06T13:58:53;22.00;99.00
55173;DHT22;41061;52.822;6.860;2022-07-06T14:01:22;22.00;99.30
55173;DHT22;41061;52.822;6.860;2022-07-06T14:03:48;22.10;98.30
55173;DHT22;41061;52.822;6.860;2022-07-06T14:06:14;21.90;98.00
55173;DHT22;41061;52.822;6.860;2022-07-06T14:08:42;21.80;99.00
55173;DHT22;41061;52.822;6.860;2022-07-06T14:11:09;21.80;98.90
55173;DHT22;41061;52.822;6.860;2022-07-06T14:13:35;21.60;98.70
55173;DHT22;41061;52.822;6.860;2022-07-06T14:16:01;21.30;99.40
55173;DHT22;41061;52.822;6.860;2022-07-06T14:18:27;21.20;99.90
55173;DHT22;41061;52.822;6.860;2022-07-06T14:20:53;21.00;99.90
55173;DHT22;41061;52.822;6.860;2022-07-06T14:23:20;21.10;99.90
55173;DHT22;41061;52.822;6.860;2022-07-06T14:25:47;21.10;99.90
55173;DHT22;41061;52.822;6.860;2022-07-06T14:28:13;21.00;99.90
55173;DHT22;41061;52.822;6.860;2022-07-06T14:30:40;20.90;99.90
55173;DHT22;41061;52.822;6.860;2022-07-06T14:33:07;20.90;99.90
55173;DHT22;41061;52.822;6.860;2022-07-06T14:35:42;20.80;99.90
55173;DHT22;41061;52.822;6.860;2022-07-06T14:38:11;20.70;99.90
55173;DHT22;41061;52.822;6.860;2022-07-06T14:40:37;20.60;99.90
55173;DHT22;41061;52.822;6.860;2022-07-06T14:43:03;20.60;99.90
55173;DHT22;41061;52.822;6.860;2022-07-06T14:45:30;20.50;99.90
55173;DHT22;41061;52.822;6.860;2022-07-06T14:47:56;20.40;99.90
55173;DHT22;41061;52.822;6.860;2022-07-06T14:50:22;20.40;99.90
55173;DHT22;41061;52.822;6.860;2022-07-06T14:52:54;20.40;99.90
55173;DHT22;41061;52.822;6.860;2022-07-06T14:55:20;20.30;99.90
55173;DHT22;41061;52.822;6.860;2022-07-06T14:57:49;20.30;99.90
55173;DHT22;41061;52.822;6.860;2022-07-06T15:00:15;20.30;99.90
55173;DHT22;41061;52.822;6.860;2022-07-06T15:02:41;20.30;99.90
55173;DHT22;41061;52.822;6.860;2022-07-06T15:05:08;20.40;99.90
55173;DHT22;41061;52.822;6.860;2022-07-06T15:07:34;20.30;99.90
55173;DHT22;41061;52.822;6.860;2022-07-06T15:10:00;20.20;99.90
55173;DHT22;41061;52.822;6.860;2022-07-06T15:12:25;20.10;99.90
55173;DHT22;41061;52.822;6.860;2022-07-06T15:14:51;20.00;99.90
55173;DHT22;41061;52.822;6.860;2022-07-06T15:17:16;19.90;99.90
55173;DHT22;41061;52.822;6.860;2022-07-06T15:19:45;20.00;99.90
55173;DHT22;41061;52.822;6.860;2022-07-06T15:22:11;19.90;99.90
55173;DHT22;41061;52.822;6.860;2022-07-06T15:24:37;19.90;99.90
55173;DHT22;41061;52.822;6.860;2022-07-06T15:27:04;19.80;99.90
55173;DHT22;41061;52.822;6.860;2022-07-06T15:29:30;19.80;99.90
55173;DHT22;41061;52.822;6.860;2022-07-06T15:31:56;19.70;99.90
55173;DHT22;41061;52.822;6.860;2022-07-06T15:34:21;19.80;99.90
55173;DHT22;41061;52.822;6.860;2022-07-06T15:36:47;19.70;99.90
55173;DHT22;41061;52.822;6.860;2022-07-06T15:39:15;19.60;99.90
55173;DHT22;41061;52.822;6.860;2022-07-06T15:41:44;19.70;99.90
55173;DHT22;41061;52.822;6.860;2022-07-06T15:44:09;19.60;99.90
55173;DHT22;41061;52.822;6.860;2022-07-06T15:46:35;19.60;99.90